Terminal Aerodrome Forecast
Issued by NWS

Home | Current Version | Previous Version | Graphics & Text | Print | Product List | Glossary On
Versions: 1 2 3 4 5 6 7 8 9 10 11 12 13 14 15 16 17 18 19 20
000
FTUS43 KGRB 170520
TAFCWA
TAF
KCWA 170520Z 1706/1806 14008G14KT P6SM SCT018 BKN100
      TEMPO 1706/1710 BKN018
     FM171000 15011G18KT P6SM -SN OVC012
     FM171500 16011G23KT 5SM -FZDZSN BR OVC010
     FM171700 16011G21KT P6SM -RA OVC010
     FM172100 17008KT 4SM -RA OVC003
     FM180100 32007KT 6SM -RASN OVC008
      AMD LTD TO CLD VIS AND WIND TIL 161200Z=

USA.gov is the U.S. government's official web portal to all federal, state and local government web resources and services.